Terminal Aerodrome Forecast
Issued by NWS Sioux Falls, SD

Home | Current Version | Previous Version | Text Only | Print | Product List | Glossary On
Versions: 1 2 3 4 5 6 7 8 9 10 11 12 13 14 15 16 17 18 19
424
FTUS43 KFSD 211336 AAA
TAFHON
TAF AMD
KHON 211336Z 2114/2212 11003KT 5SM BR BKN008
      TEMPO 2114/2116 6SM -SHRA BR SCT008 OVC022
     FM211600 15004KT 6SM BR VCSH OVC022
     FM211800 16004KT P6SM BKN035
     FM220000 13006KT P6SM SCT040
     FM220300 13005KT P6SM FEW150=

USA.gov is the U.S. government's official web portal to all federal, state and local government web resources and services.